Time;durP1;ratioP1;P1;durP2;ratioP2;P2;SDS_P1;SDS_P2;PMS_P1;PMS_P2;Temp;Humidity;BMP_temperature;BMP_pressure;BME280_temperature;BME280_humidity;BME280_pressure;Samples;Min_cycle;Max_cycle;Signal;HPM_P1;HPM_P2
2021/05/16 00:01:19;;;;;;;32.53;7.40;;;10.30;84.40;;;;;;5019559;28;20051;-77
2021/05/16 00:03:47;;;;;;;29.38;6.07;;;10.30;84.50;;;;;;5020850;28;20389;-75
2021/05/16 00:06:13;;;;;;;30.17;6.60;;;10.30;84.50;;;;;;5001160;28;20123;-73
2021/05/16 00:08:39;;;;;;;33.53;7.07;;;10.30;84.50;;;;;;5009754;28;20040;-73
2021/05/16 00:11:05;;;;;;;31.42;6.82;;;10.30;84.70;;;;;;5011559;28;20390;-72
2021/05/16 00:13:31;;;;;;;37.55;8.20;;;10.30;84.70;;;;;;5010160;28;20033;-75
2021/05/16 00:15:56;;;;;;;31.30;6.80;;;10.30;84.70;;;;;;5014868;28;20030;-76
2021/05/16 00:18:22;;;;;;;27.65;5.75;;;10.30;84.90;;;;;;5025928;28;20412;-74
2021/05/16 00:20:48;;;;;;;33.13;6.45;;;10.40;84.80;;;;;;5024157;28;20143;-74
2021/05/16 00:23:14;;;;;;;34.10;6.40;;;10.40;84.80;;;;;;5026766;28;20124;-74
2021/05/16 00:25:40;;;;;;;34.58;7.45;;;10.40;84.70;;;;;;5026409;28;20038;-75
2021/05/16 00:28:06;;;;;;;27.83;5.57;;;10.30;84.70;;;;;;5024046;28;20030;-75
2021/05/16 00:30:32;;;;;;;31.50;6.63;;;10.30;84.90;;;;;;5002335;28;726343;-82
2021/05/16 00:32:59;;;;;;;27.33;5.90;;;10.30;84.90;;;;;;5024598;28;20041;-74
2021/05/16 00:35:28;;;;;;;36.35;7.30;;;10.30;84.90;;;;;;5023089;28;20053;-75
2021/05/16 00:37:54;;;;;;;30.38;6.47;;;10.20;85.10;;;;;;5013984;28;20420;-72
2021/05/16 00:40:20;;;;;;;37.97;7.55;;;10.20;85.10;;;;;;5008280;28;20069;-75
2021/05/16 00:42:46;;;;;;;35.90;7.55;;;10.10;85.20;;;;;;5010578;28;20045;-73
2021/05/16 00:45:19;;;;;;;35.33;6.75;;;10.20;85.30;;;;;;5026175;28;20032;-74
2021/05/16 00:47:51;;;;;;;36.20;6.25;;;10.20;85.60;;;;;;5022772;28;20134;-73
2021/05/16 00:50:18;;;;;;;28.08;7.68;;;10.30;85.50;;;;;;5021956;28;20094;-73
2021/05/16 00:52:43;;;;;;;31.88;6.70;;;10.20;85.20;;;;;;5014979;28;20041;-74
2021/05/16 00:55:11;;;;;;;26.98;7.15;;;10.20;85.30;;;;;;5024234;28;20041;-74
2021/05/16 00:57:37;;;;;;;35.42;7.15;;;10.20;85.20;;;;;;5021396;28;20026;-73
2021/05/16 01:00:06;;;;;;;32.17;6.53;;;10.20;85.40;;;;;;5016455;28;20038;-72
2021/05/16 01:02:31;;;;;;;34.08;6.93;;;10.10;85.60;;;;;;5014046;28;20057;-73
2021/05/16 01:04:57;;;;;;;33.75;5.88;;;10.10;85.40;;;;;;5022545;28;20096;-77
2021/05/16 01:07:23;;;;;;;32.67;7.20;;;10.10;85.70;;;;;;5024278;28;20029;-75
2021/05/16 01:09:48;;;;;;;28.33;5.53;;;10.10;85.60;;;;;;5013130;28;20037;-74
2021/05/16 01:12:15;;;;;;;29.17;6.63;;;10.10;85.60;;;;;;5011238;28;20045;-74
2021/05/16 01:14:44;;;;;;;31.35;7.07;;;10.10;85.70;;;;;;5019823;28;20034;-74
2021/05/16 01:17:10;;;;;;;31.63;6.03;;;10.10;85.80;;;;;;5007345;28;20041;-72
2021/05/16 01:19:36;;;;;;;32.13;7.07;;;10.00;85.90;;;;;;5012114;28;20056;-73
2021/05/16 01:22:04;;;;;;;37.78;7.32;;;10.00;85.90;;;;;;5019465;28;20041;-73
2021/05/16 01:24:31;;;;;;;38.90;6.30;;;10.00;86.00;;;;;;5027112;28;20132;-73
2021/05/16 01:27:00;;;;;;;24.85;5.80;;;10.00;85.90;;;;;;5018952;28;20469;-73
2021/05/16 01:29:26;;;;;;;31.27;6.53;;;10.00;86.00;;;;;;5018135;28;20085;-74
2021/05/16 01:31:52;;;;;;;28.13;5.75;;;10.00;86.00;;;;;;5023827;28;20081;-74
2021/05/16 01:34:18;;;;;;;35.97;7.18;;;10.00;86.00;;;;;;5015524;28;20068;-73
2021/05/16 01:36:44;;;;;;;27.70;6.43;;;9.90;86.00;;;;;;5006870;28;20118;-72
2021/05/16 01:39:12;;;;;;;29.90;6.60;;;9.80;85.90;;;;;;5007921;28;20036;-72
2021/05/16 01:41:38;;;;;;;28.08;6.97;;;9.80;86.10;;;;;;5013027;28;20391;-74
2021/05/16 01:44:07;;;;;;;31.63;6.80;;;9.80;86.10;;;;;;5026243;28;20469;-73
2021/05/16 01:46:32;;;;;;;31.52;6.25;;;9.70;86.00;;;;;;5006432;28;20026;-73
2021/05/16 01:48:58;;;;;;;32.72;6.13;;;9.60;86.10;;;;;;5005699;28;20129;-76
2021/05/16 01:51:24;;;;;;;28.83;5.88;;;9.60;86.10;;;;;;5014416;28;20030;-81
2021/05/16 01:53:51;;;;;;;28.38;6.78;;;9.60;86.20;;;;;;5004981;28;20478;-74
2021/05/16 01:56:28;;;;;;;26.52;6.95;;;9.60;86.10;;;;;;5007366;28;20026;-75
2021/05/16 01:58:55;;;;;;;30.67;6.10;;;9.50;86.10;;;;;;4997828;28;20104;-74
2021/05/16 02:01:21;;;;;;;27.90;7.18;;;9.40;86.20;;;;;;4999363;28;20413;-74
2021/05/16 02:03:46;;;;;;;27.77;6.63;;;9.40;86.30;;;;;;5010736;28;20041;-77
2021/05/16 02:06:16;;;;;;;30.77;6.63;;;9.40;86.30;;;;;;5020584;28;20033;-73
2021/05/16 02:08:43;;;;;;;26.20;5.80;;;9.40;86.40;;;;;;5017786;28;20041;-73
2021/05/16 02:11:09;;;;;;;24.38;5.57;;;9.30;86.40;;;;;;5027321;28;20374;-74
2021/05/16 02:13:40;;;;;;;23.33;5.72;;;9.30;86.50;;;;;;5025872;28;20029;-74
2021/05/16 02:16:07;;;;;;;27.85;5.68;;;9.20;86.30;;;;;;5024082;28;20029;-74
2021/05/16 02:18:33;;;;;;;27.90;6.05;;;9.20;86.50;;;;;;5024253;28;20481;-74
2021/05/16 02:21:00;;;;;;;28.88;5.50;;;9.10;86.60;;;;;;5020928;28;20049;-73
2021/05/16 02:23:25;;;;;;;31.65;5.80;;;9.10;86.70;;;;;;5010448;28;20103;-74
2021/05/16 02:25:51;;;;;;;27.13;6.03;;;9.10;86.70;;;;;;5005660;28;20502;-73
2021/05/16 02:28:18;;;;;;;24.75;5.03;;;9.10;86.70;;;;;;5015629;28;20037;-75
2021/05/16 02:30:45;;;;;;;26.98;5.80;;;9.10;86.60;;;;;;5014479;28;20054;-74
2021/05/16 02:33:10;;;;;;;29.73;6.25;;;9.00;86.70;;;;;;5007431;28;20064;-74
2021/05/16 02:35:36;;;;;;;26.67;6.40;;;9.00;86.70;;;;;;5025913;28;20454;-74
2021/05/16 02:38:02;;;;;;;26.55;6.03;;;9.00;86.80;;;;;;5022050;28;20052;-75
2021/05/16 02:40:28;;;;;;;28.80;6.03;;;8.90;86.70;;;;;;5023549;28;20102;-77
2021/05/16 02:42:54;;;;;;;27.13;5.97;;;8.90;86.70;;;;;;5008245;28;20035;-77
2021/05/16 02:45:20;;;;;;;26.73;5.95;;;8.90;86.60;;;;;;5021498;28;20145;-74
2021/05/16 02:47:45;;;;;;;25.15;5.82;;;8.90;86.60;;;;;;5027362;28;20635;-73
2021/05/16 02:50:12;;;;;;;25.48;5.90;;;8.90;86.60;;;;;;5019575;28;20049;-73
2021/05/16 02:52:38;;;;;;;26.77;5.68;;;8.90;86.70;;;;;;4997999;28;20145;-74
2021/05/16 02:55:05;;;;;;;25.25;5.40;;;8.80;86.80;;;;;;5024275;28;20083;-76
2021/05/16 02:57:31;;;;;;;22.73;5.00;;;8.80;86.80;;;;;;5014571;28;20245;-74
2021/05/16 02:59:56;;;;;;;29.58;6.18;;;8.80;86.80;;;;;;5014646;28;20378;-74
2021/05/16 03:02:22;;;;;;;28.65;5.97;;;8.70;86.90;;;;;;5020691;28;20396;-74
2021/05/16 03:04:48;;;;;;;27.10;5.68;;;8.70;87.00;;;;;;5017869;28;20041;-73
2021/05/16 03:07:14;;;;;;;29.42;6.03;;;8.70;86.90;;;;;;5027168;28;20076;-73
2021/05/16 03:09:40;;;;;;;25.45;6.43;;;8.70;86.80;;;;;;5023328;28;20038;-73
2021/05/16 03:12:07;;;;;;;29.88;5.50;;;8.60;86.90;;;;;;5023914;28;20041;-73
2021/05/16 03:14:34;;;;;;;28.83;5.63;;;8.60;86.90;;;;;;5027390;28;20057;-73
2021/05/16 03:17:00;;;;;;;26.63;5.68;;;8.60;87.10;;;;;;5025532;28;20491;-73
2021/05/16 03:19:26;;;;;;;27.48;5.47;;;8.60;87.20;;;;;;5003632;28;20109;-73
2021/05/16 03:21:52;;;;;;;21.88;5.75;;;8.60;87.30;;;;;;5007123;28;20384;-73
2021/05/16 03:24:18;;;;;;;25.27;5.10;;;8.60;87.20;;;;;;5028803;28;20034;-76
2021/05/16 03:26:45;;;;;;;29.83;5.82;;;8.60;87.50;;;;;;5021347;28;20468;-72
2021/05/16 03:29:10;;;;;;;31.38;6.00;;;8.60;87.40;;;;;;5035238;28;20435;-72
2021/05/16 03:31:36;;;;;;;27.67;5.60;;;8.60;87.50;;;;;;5025207;28;20041;-72
2021/05/16 03:34:04;;;;;;;27.27;6.28;;;8.60;87.30;;;;;;5021003;28;20034;-75
2021/05/16 03:36:30;;;;;;;25.92;5.03;;;8.60;87.40;;;;;;5026257;28;20029;-72
2021/05/16 03:38:55;;;;;;;23.95;5.53;;;8.60;87.50;;;;;;5029391;28;20038;-74
2021/05/16 03:41:21;;;;;;;30.17;5.38;;;8.60;87.40;;;;;;5027105;28;20124;-73
2021/05/16 03:43:49;;;;;;;23.52;5.35;;;8.60;87.40;;;;;;5020154;28;20476;-78
2021/05/16 03:46:15;;;;;;;30.80;6.13;;;8.50;87.40;;;;;;5026954;28;20068;-75
2021/05/16 03:48:41;;;;;;;28.85;7.15;;;8.60;87.50;;;;;;5023423;28;20120;-73
2021/05/16 03:51:06;;;;;;;27.08;5.90;;;8.50;87.30;;;;;;5021880;28;20112;-73
2021/05/16 03:53:32;;;;;;;22.80;5.68;;;8.50;87.40;;;;;;5025226;28;20087;-74
2021/05/16 03:55:58;;;;;;;22.63;6.28;;;8.50;87.30;;;;;;5028578;28;20079;-73
2021/05/16 03:58:24;;;;;;;24.98;5.45;;;8.50;87.30;;;;;;5011825;28;20385;-74
2021/05/16 04:00:50;;;;;;;26.85;7.13;;;8.50;87.10;;;;;;5015897;28;20041;-73
2021/05/16 04:03:15;;;;;;;28.60;7.07;;;8.50;87.20;;;;;;5023793;28;20117;-72
2021/05/16 04:05:41;;;;;;;23.17;5.50;;;8.50;87.20;;;;;;5026977;28;20053;-72
2021/05/16 04:08:07;;;;;;;24.25;5.65;;;8.50;87.20;;;;;;5031843;28;20044;-73
2021/05/16 04:10:33;;;;;;;28.67;5.47;;;8.50;87.20;;;;;;5023576;28;20033;-73
2021/05/16 04:12:59;;;;;;;23.60;5.05;;;8.50;87.20;;;;;;5016243;28;20030;-73
2021/05/16 04:15:25;;;;;;;21.65;4.82;;;8.50;87.00;;;;;;5025458;28;20484;-72
2021/05/16 04:17:51;;;;;;;17.05;4.97;;;8.50;87.10;;;;;;5030046;28;20520;-73
2021/05/16 04:20:17;;;;;;;23.58;5.68;;;8.60;87.10;;;;;;5025784;28;20042;-73
2021/05/16 04:22:43;;;;;;;25.33;4.97;;;8.60;86.90;;;;;;5014626;28;20038;-73
2021/05/16 04:25:09;;;;;;;26.63;5.47;;;8.60;87.10;;;;;;5013863;28;20038;-73
2021/05/16 04:27:35;;;;;;;19.92;5.03;;;8.70;86.90;;;;;;5024492;28;20373;-72
2021/05/16 04:30:01;;;;;;;18.13;5.20;;;8.70;86.80;;;;;;5026142;28;20038;-75
2021/05/16 04:32:26;;;;;;;23.40;5.63;;;8.80;86.70;;;;;;5003337;28;20089;-73
2021/05/16 04:34:52;;;;;;;21.60;4.60;;;8.90;86.10;;;;;;5007970;28;20037;-73
2021/05/16 04:37:18;;;;;;;27.13;5.63;;;9.00;86.20;;;;;;5008326;28;20114;-73
2021/05/16 04:39:43;;;;;;;21.55;5.20;;;9.00;85.80;;;;;;5016073;28;20037;-73
2021/05/16 04:42:09;;;;;;;24.05;5.90;;;9.10;85.80;;;;;;5023745;28;20041;-75
2021/05/16 04:44:35;;;;;;;19.33;6.28;;;9.10;85.70;;;;;;5024344;28;20036;-73
2021/05/16 04:47:00;;;;;;;23.60;5.28;;;9.30;85.60;;;;;;5020221;28;20060;-72
2021/05/16 04:49:26;;;;;;;24.42;5.25;;;9.40;85.40;;;;;;5019684;28;20171;-72
2021/05/16 04:51:52;;;;;;;21.23;5.07;;;9.50;85.10;;;;;;5027631;28;20037;-72
2021/05/16 04:54:17;;;;;;;26.58;6.00;;;9.50;84.80;;;;;;5021318;28;20366;-73
2021/05/16 04:56:43;;;;;;;23.67;5.03;;;9.50;85.00;;;;;;5024623;28;20048;-73
2021/05/16 04:59:09;;;;;;;21.90;4.88;;;9.70;85.00;;;;;;5007872;28;20382;-73
2021/05/16 05:01:37;;;;;;;23.25;5.78;;;9.80;84.70;;;;;;5008622;28;20046;-73
2021/05/16 05:04:04;;;;;;;23.52;5.05;;;9.90;84.30;;;;;;5030902;28;20029;-74
2021/05/16 05:06:29;;;;;;;26.63;5.82;;;9.90;84.60;;;;;;5021914;28;20032;-75
2021/05/16 05:08:56;;;;;;;23.65;5.45;;;9.90;84.90;;;;;;5026380;28;20046;-73
2021/05/16 05:11:22;;;;;;;23.13;5.55;;;9.90;85.00;;;;;;5014353;28;20049;-72
2021/05/16 05:13:48;;;;;;;20.90;5.65;;;10.00;85.20;;;;;;5028390;28;20385;-73
2021/05/16 05:16:13;;;;;;;27.58;5.45;;;10.10;85.10;;;;;;5029047;28;20059;-80
2021/05/16 05:18:39;;;;;;;21.95;5.00;;;10.00;85.10;;;;;;5028341;28;20049;-74
2021/05/16 05:21:05;;;;;;;20.10;4.50;;;10.10;85.00;;;;;;5025638;28;20419;-74
2021/05/16 05:23:31;;;;;;;19.10;5.30;;;10.10;84.90;;;;;;5029224;28;20073;-73
2021/05/16 05:25:58;;;;;;;17.63;4.38;;;10.00;84.80;;;;;;5024077;28;20049;-74
2021/05/16 05:28:24;;;;;;;17.92;4.82;;;10.60;85.10;;;;;;5026523;28;20075;-77
2021/05/16 05:30:50;;;;;;;23.05;5.22;;;11.60;81.00;;;;;;5021824;28;20061;-75
2021/05/16 05:33:18;;;;;;;15.90;5.05;;;12.50;77.30;;;;;;5027636;28;20052;-81
2021/05/16 05:35:44;;;;;;;16.65;4.40;;;13.50;74.30;;;;;;5028336;28;20071;-75
2021/05/16 05:38:09;;;;;;;20.92;5.15;;;14.00;71.00;;;;;;5028783;28;20033;-76
2021/05/16 05:40:35;;;;;;;18.35;4.78;;;13.50;71.70;;;;;;5025717;28;20045;-74
2021/05/16 05:43:01;;;;;;;16.05;4.95;;;13.10;73.50;;;;;;5020964;28;20037;-74
2021/05/16 05:45:26;;;;;;;20.88;4.80;;;13.20;73.70;;;;;;5025406;28;20069;-74
2021/05/16 05:47:52;;;;;;;22.05;5.13;;;13.80;71.80;;;;;;5022614;28;20058;-74
2021/05/16 05:50:18;;;;;;;21.17;5.47;;;14.20;70.10;;;;;;5017064;28;20026;-73
2021/05/16 05:52:43;;;;;;;17.92;4.40;;;14.00;70.40;;;;;;5015518;28;20116;-81
2021/05/16 05:55:10;;;;;;;16.98;4.72;;;13.70;71.60;;;;;;5022959;28;20030;-74
2021/05/16 05:57:35;;;;;;;19.60;5.95;;;13.40;73.00;;;;;;5017300;28;20096;-74
2021/05/16 06:00:01;;;;;;;16.38;4.63;;;13.20;73.40;;;;;;5019956;28;20441;-73
2021/05/16 06:02:27;;;;;;;21.75;5.10;;;13.10;73.80;;;;;;5014303;28;20045;-76
2021/05/16 06:04:52;;;;;;;20.60;5.20;;;12.80;75.10;;;;;;5013672;28;20034;-74
2021/05/16 06:07:18;;;;;;;18.55;5.53;;;12.80;75.20;;;;;;5025290;28;20036;-74
2021/05/16 06:09:45;;;;;;;18.13;5.55;;;12.70;75.90;;;;;;5024166;28;20034;-74
2021/05/16 06:12:10;;;;;;;23.23;5.97;;;12.60;76.00;;;;;;5026499;28;20030;-73
2021/05/16 06:14:36;;;;;;;19.55;4.97;;;12.60;76.30;;;;;;5015519;28;20052;-74
2021/05/16 06:17:03;;;;;;;17.33;5.40;;;12.70;76.10;;;;;;5020375;28;20485;-75
2021/05/16 06:19:29;;;;;;;18.02;5.95;;;12.80;77.00;;;;;;5020426;28;20033;-76
2021/05/16 06:21:54;;;;;;;17.38;4.70;;;12.80;75.70;;;;;;5027466;28;20053;-73
2021/05/16 06:24:20;;;;;;;21.17;5.07;;;12.90;76.20;;;;;;5022338;28;20036;-73
2021/05/16 06:26:46;;;;;;;15.48;5.35;;;13.00;76.20;;;;;;5026248;28;20033;-74
2021/05/16 06:29:14;;;;;;;19.45;5.75;;;13.00;75.20;;;;;;5013893;28;20772;-74
2021/05/16 06:31:41;;;;;;;20.70;5.55;;;13.10;75.70;;;;;;5013109;28;20050;-74
2021/05/16 06:34:08;;;;;;;18.67;4.95;;;13.30;75.20;;;;;;5018333;28;20137;-74
2021/05/16 06:36:33;;;;;;;21.00;5.40;;;13.50;74.40;;;;;;5019668;28;20022;-73
2021/05/16 06:38:59;;;;;;;17.95;5.18;;;13.50;74.80;;;;;;5008450;28;20457;-75
2021/05/16 06:41:27;;;;;;;23.27;5.68;;;13.40;74.80;;;;;;5020532;28;20037;-75
2021/05/16 06:43:54;;;;;;;17.33;5.00;;;13.30;74.40;;;;;;5026577;28;20040;-74
2021/05/16 06:46:20;;;;;;;19.25;4.95;;;13.40;74.90;;;;;;5027076;28;20389;-77
2021/05/16 06:48:46;;;;;;;20.55;5.95;;;13.60;74.50;;;;;;5027955;28;20044;-81
2021/05/16 06:51:12;;;;;;;20.10;5.45;;;13.80;74.20;;;;;;5025821;28;20033;-74
2021/05/16 06:53:38;;;;;;;19.70;4.93;;;13.80;73.20;;;;;;5019470;28;20053;-75
2021/05/16 06:56:04;;;;;;;19.42;5.13;;;14.00;73.30;;;;;;5025216;28;20038;-74
2021/05/16 06:58:30;;;;;;;19.15;5.70;;;14.00;72.70;;;;;;5027672;28;20025;-75
2021/05/16 07:00:56;;;;;;;17.67;5.20;;;14.10;72.60;;;;;;5030935;28;20132;-75
2021/05/16 07:03:22;;;;;;;22.58;5.70;;;14.00;72.70;;;;;;5023534;28;20095;-74
2021/05/16 07:05:47;;;;;;;16.10;4.85;;;14.30;72.40;;;;;;5022909;28;20109;-75
2021/05/16 07:08:13;;;;;;;15.98;5.00;;;14.50;71.60;;;;;;5021070;28;20032;-74
2021/05/16 07:10:38;;;;;;;18.02;5.50;;;14.70;71.30;;;;;;5025966;28;20083;-76
2021/05/16 07:13:04;;;;;;;17.77;4.72;;;14.70;70.60;;;;;;5021469;28;20030;-74
2021/05/16 07:15:30;;;;;;;22.55;5.93;;;14.80;70.00;;;;;;5025891;28;20897;-81
2021/05/16 07:17:56;;;;;;;16.35;5.47;;;14.70;69.20;;;;;;5018503;28;20386;-74
2021/05/16 07:20:21;;;;;;;16.02;4.32;;;14.80;68.90;;;;;;5014999;28;21119;-70
2021/05/16 07:22:49;;;;;;;18.02;5.07;;;14.80;69.10;;;;;;5015737;28;20026;-70
2021/05/16 07:25:17;;;;;;;18.02;5.00;;;14.70;68.40;;;;;;5013652;28;20040;-70
2021/05/16 07:27:47;;;;;;;17.52;5.28;;;14.70;68.40;;;;;;5022268;28;20434;-70
2021/05/16 07:30:13;;;;;;;19.83;5.38;;;14.70;68.50;;;;;;5020817;28;20041;-77
2021/05/16 07:32:39;;;;;;;17.40;5.43;;;14.60;68.70;;;;;;5017142;28;20100;-71
2021/05/16 07:35:06;;;;;;;16.83;5.60;;;14.60;69.40;;;;;;5023259;28;20849;-70
2021/05/16 07:37:32;;;;;;;17.02;5.22;;;14.80;69.20;;;;;;5033051;28;20021;-69
2021/05/16 07:39:58;;;;;;;14.77;4.53;;;15.00;68.20;;;;;;5016412;28;20034;-70
2021/05/16 07:42:24;;;;;;;16.00;4.72;;;15.30;67.10;;;;;;5022397;28;20041;-70
2021/05/16 07:44:50;;;;;;;17.90;4.60;;;15.80;66.30;;;;;;5022318;28;20104;-70
2021/05/16 07:47:15;;;;;;;17.40;5.18;;;16.00;64.40;;;;;;5023337;28;20038;-70
2021/05/16 07:49:41;;;;;;;15.95;4.30;;;15.80;64.60;;;;;;5026355;28;20043;-69
2021/05/16 07:52:07;;;;;;;16.25;5.03;;;15.80;64.20;;;;;;5017920;28;20080;-73
2021/05/16 07:54:32;;;;;;;17.30;5.20;;;15.60;63.60;;;;;;5023132;28;20037;-70
2021/05/16 07:57:00;;;;;;;16.35;4.82;;;15.60;65.20;;;;;;5022826;28;20045;-70
2021/05/16 07:59:26;;;;;;;22.00;5.55;;;15.60;65.50;;;;;;5017504;28;20026;-71
2021/05/16 08:01:51;;;;;;;18.85;4.70;;;15.70;65.10;;;;;;5025994;28;20521;-70
2021/05/16 08:04:17;;;;;;;18.23;5.55;;;15.60;65.10;;;;;;5019697;28;20068;-72
2021/05/16 08:06:43;;;;;;;16.30;4.90;;;16.00;64.60;;;;;;5027024;28;20456;-69
2021/05/16 08:09:09;;;;;;;18.50;5.25;;;16.10;64.00;;;;;;5021945;28;20220;-70
2021/05/16 08:11:34;;;;;;;15.63;5.32;;;16.20;64.00;;;;;;5019655;28;20057;-69
2021/05/16 08:14:00;;;;;;;17.73;5.53;;;16.10;63.90;;;;;;5026991;28;20034;-68
2021/05/16 08:16:26;;;;;;;18.27;5.65;;;16.00;64.10;;;;;;5025259;28;20041;-73
2021/05/16 08:18:52;;;;;;;16.30;4.93;;;15.70;64.30;;;;;;5014399;28;20076;-69
2021/05/16 08:21:19;;;;;;;19.08;5.10;;;16.00;63.80;;;;;;5020131;28;20080;-69
2021/05/16 08:23:45;;;;;;;14.93;4.90;;;16.30;63.70;;;;;;5031347;28;20521;-70
2021/05/16 08:26:11;;;;;;;15.80;4.80;;;16.90;62.60;;;;;;5032723;28;20056;-71
2021/05/16 08:28:37;;;;;;;15.23;4.63;;;17.10;58.80;;;;;;5020164;28;20061;-70
2021/05/16 08:31:03;;;;;;;17.15;4.85;;;16.90;59.20;;;;;;5023020;28;20069;-71
2021/05/16 08:33:28;;;;;;;13.73;4.22;;;16.60;60.30;;;;;;5024025;28;20034;-70
2021/05/16 08:35:54;;;;;;;14.70;4.72;;;16.30;61.40;;;;;;5010596;28;20037;-72
2021/05/16 08:38:20;;;;;;;14.40;4.65;;;16.00;63.40;;;;;;5010667;28;20041;-72
2021/05/16 08:40:45;;;;;;;17.83;4.78;;;15.60;64.90;;;;;;5018260;28;20634;-69
2021/05/16 08:43:11;;;;;;;12.82;4.38;;;15.20;66.30;;;;;;5015576;28;20034;-70
2021/05/16 08:45:37;;;;;;;15.45;4.53;;;15.10;67.40;;;;;;5021611;28;20496;-70
2021/05/16 08:48:04;;;;;;;15.45;4.88;;;15.00;68.10;;;;;;5030101;28;20401;-73
2021/05/16 08:50:30;;;;;;;16.42;5.57;;;14.90;70.30;;;;;;5003705;28;20081;-70
2021/05/16 08:52:56;;;;;;;18.98;5.32;;;14.70;72.70;;;;;;5009543;28;20424;-70
2021/05/16 08:55:22;;;;;;;16.77;5.03;;;14.80;73.40;;;;;;5022469;28;20062;-70
2021/05/16 08:57:48;;;;;;;16.80;4.88;;;15.00;73.20;;;;;;5015038;28;20077;-69
2021/05/16 09:00:18;;;;;;;14.95;4.72;;;15.60;70.90;;;;;;5021985;28;20045;-69
2021/05/16 09:03:02;;;;;;;20.08;4.70;;;16.10;67.90;;;;;;5024755;28;20056;-70
2021/05/16 09:05:49;;;;;;;17.73;4.50;;;16.10;63.90;;;;;;5009510;28;20030;-69
2021/05/16 09:08:24;;;;;;;12.07;4.30;;;16.30;63.50;;;;;;5014954;28;20539;-71
2021/05/16 09:10:59;;;;;;;13.15;3.53;;;16.60;60.60;;;;;;5020701;28;20061;-69
2021/05/16 09:13:41;;;;;;;16.02;4.03;;;16.90;60.60;;;;;;5017161;28;20040;-70
2021/05/16 09:16:16;;;;;;;12.10;3.55;;;16.80;59.50;;;;;;5015798;28;20130;-69
2021/05/16 09:18:48;;;;;;;10.45;3.08;;;17.30;59.60;;;;;;5019930;28;20382;-71
2021/05/16 09:21:28;;;;;;;11.35;3.00;;;17.80;57.80;;;;;;5022584;28;20048;-74
2021/05/16 09:24:00;;;;;;;11.73;3.60;;;18.00;55.00;;;;;;5016752;28;20037;-69
2021/05/16 09:26:26;;;;;;;11.90;2.90;;;17.90;56.40;;;;;;5008538;28;20037;-70
2021/05/16 09:28:53;;;;;;;10.48;3.03;;;18.00;55.20;;;;;;5019834;28;20025;-76
2021/05/16 09:31:32;;;;;;;8.32;2.33;;;18.10;55.40;;;;;;5011255;28;20552;-69
2021/05/16 09:34:05;;;;;;;12.15;2.67;;;18.30;54.80;;;;;;5015302;28;20113;-69
2021/05/16 09:36:35;;;;;;;11.45;2.83;;;18.20;54.30;;;;;;5017827;28;20049;-70
2021/05/16 09:39:24;;;;;;;10.18;2.38;;;17.90;54.20;;;;;;4996406;28;20050;-69
2021/05/16 09:42:02;;;;;;;7.75;2.33;;;18.10;54.10;;;;;;5025879;28;20041;-70
2021/05/16 09:44:38;;;;;;;9.98;2.13;;;18.10;53.80;;;;;;5005857;28;20034;-70
2021/05/16 09:47:17;;;;;;;9.05;2.58;;;18.00;54.00;;;;;;5019887;28;20046;-69
2021/05/16 09:49:48;;;;;;;9.98;2.45;;;17.80;54.20;;;;;;5003018;28;20038;-71
2021/05/16 09:52:16;;;;;;;9.85;2.80;;;18.10;54.90;;;;;;5017445;28;20087;-70
2021/05/16 09:55:00;;;;;;;12.15;3.67;;;18.00;54.70;;;;;;5016285;28;20038;-71
2021/05/16 09:57:33;;;;;;;8.93;2.85;;;17.80;55.20;;;;;;5018286;28;20042;-70
2021/05/16 10:00:00;;;;;;;8.02;2.45;;;17.70;54.10;;;;;;5020423;28;20495;-69
2021/05/16 10:02:28;;;;;;;7.03;2.05;;;17.60;54.80;;;;;;5027951;28;20048;-70
2021/05/16 10:04:55;;;;;;;8.40;2.20;;;17.60;55.20;;;;;;5020134;28;20088;-70
2021/05/16 10:07:22;;;;;;;8.40;2.65;;;17.60;55.10;;;;;;5013741;28;20025;-70
2021/05/16 10:09:48;;;;;;;10.80;3.30;;;17.30;56.30;;;;;;5018169;28;20044;-72
2021/05/16 10:12:16;;;;;;;10.77;3.10;;;17.40;57.00;;;;;;5004089;28;20038;-70
2021/05/16 10:14:46;;;;;;;8.77;2.78;;;17.60;57.80;;;;;;5013187;28;20045;-69
2021/05/16 10:17:13;;;;;;;11.02;3.60;;;17.90;57.50;;;;;;5021045;28;20034;-69
2021/05/16 10:19:42;;;;;;;8.18;3.17;;;18.00;59.50;;;;;;5025785;28;20050;-70
2021/05/16 10:22:08;;;;;;;15.15;4.05;;;18.00;63.80;;;;;;5007201;28;20037;-73
2021/05/16 10:24:47;;;;;;;8.85;2.80;;;17.50;64.90;;;;;;5021389;28;20103;-69
2021/05/16 10:27:26;;;;;;;10.90;3.22;;;17.10;65.30;;;;;;5030277;28;20044;-71
2021/05/16 10:30:06;;;;;;;10.93;3.05;;;16.70;67.60;;;;;;5009877;28;20481;-69
2021/05/16 10:32:35;;;;;;;9.85;3.00;;;16.70;67.30;;;;;;5003632;28;20079;-71
2021/05/16 10:35:10;;;;;;;12.90;3.90;;;16.70;67.30;;;;;;5012746;28;20120;-72
2021/05/16 10:37:50;;;;;;;13.20;3.65;;;17.10;67.70;;;;;;5004648;28;20532;-71
2021/05/16 10:40:31;;;;;;;10.43;3.35;;;17.50;69.30;;;;;;5005968;28;20138;-72
2021/05/16 10:43:05;;;;;;;11.85;2.85;;;17.50;64.40;;;;;;5032422;28;20029;-72
2021/05/16 10:45:40;;;;;;;12.45;2.90;;;17.40;64.60;;;;;;5027950;28;20033;-73
2021/05/16 10:48:17;;;;;;;10.30;3.15;;;17.40;63.80;;;;;;5025714;28;20453;-72
2021/05/16 10:50:54;;;;;;;9.85;2.88;;;17.40;65.00;;;;;;5007437;28;20801;-74
2021/05/16 10:53:35;;;;;;;8.43;2.45;;;17.10;63.10;;;;;;5006196;28;20121;-71
2021/05/16 10:56:32;;;;;;;8.75;2.30;;;17.10;61.80;;;;;;5017007;28;20034;-71
2021/05/16 10:58:58;;;;;;;8.40;2.20;;;17.30;60.60;;;;;;5003207;28;20140;-71
2021/05/16 11:01:40;;;;;;;6.75;2.15;;;17.80;60.70;;;;;;5026498;28;20120;-74
2021/05/16 11:04:06;;;;;;;8.98;2.10;;;18.40;57.10;;;;;;5019267;28;20034;-73
2021/05/16 11:06:38;;;;;;;8.23;2.38;;;18.10;57.10;;;;;;5013644;28;20090;-71
2021/05/16 11:09:05;;;;;;;10.30;2.90;;;17.90;57.60;;;;;;5019840;28;20037;-71
2021/05/16 11:11:49;;;;;;;6.40;1.40;;;17.40;57.90;;;;;;5021922;28;20029;-71
2021/05/16 11:14:22;;;;;;;4.15;1.30;;;15.80;61.90;;;;;;5024841;28;20044;-71
2021/05/16 11:16:51;;;;;;;9.68;1.88;;;14.10;67.70;;;;;;5017399;28;20045;-73
2021/05/16 11:19:19;;;;;;;5.75;1.77;;;13.30;72.80;;;;;;5025406;28;20065;-73
2021/05/16 11:21:45;;;;;;;5.88;1.92;;;12.30;76.90;;;;;;5024887;28;20038;-73
2021/05/16 11:24:10;;;;;;;4.22;1.52;;;11.90;78.10;;;;;;5021442;28;20785;-72
2021/05/16 11:26:36;;;;;;;5.32;2.00;;;11.80;78.90;;;;;;5024634;28;20417;-72
2021/05/16 11:29:02;;;;;;;6.05;2.00;;;11.70;79.00;;;;;;5023096;28;20034;-73
2021/05/16 11:31:31;;;;;;;4.05;1.92;;;11.70;80.30;;;;;;4996793;28;20134;-75
2021/05/16 11:34:00;;;;;;;5.50;1.92;;;11.90;81.10;;;;;;4998268;28;20034;-73
2021/05/16 11:36:28;;;;;;;4.72;1.67;;;12.10;80.80;;;;;;5001276;28;20409;-72
2021/05/16 11:38:55;;;;;;;3.47;2.03;;;12.10;79.60;;;;;;4997316;28;20093;-72
2021/05/16 11:41:34;;;;;;;5.10;2.30;;;12.50;80.50;;;;;;5004794;28;20050;-71
2021/05/16 11:44:09;;;;;;;3.45;1.48;;;12.80;80.10;;;;;;5005907;28;20425;-71
2021/05/16 11:46:39;;;;;;;;;;;13.20;78.40;;;;;;5022682;28;20577;-72
2021/05/16 11:49:05;;;;;;;4.20;1.90;;;13.60;77.20;;;;;;5020159;28;20447;-72
2021/05/16 11:51:35;;;;;;;4.63;1.80;;;13.90;75.10;;;;;;5021181;28;20476;-76
2021/05/16 11:54:02;;;;;;;5.95;1.95;;;14.60;74.40;;;;;;5018960;28;20492;-73
2021/05/16 11:56:30;;;;;;;4.15;1.80;;;15.30;74.20;;;;;;5023217;28;20045;-72
2021/05/16 11:59:00;;;;;;;4.40;1.50;;;16.00;74.00;;;;;;5022110;28;20045;-71
2021/05/16 12:01:27;;;;;;;4.32;1.50;;;16.30;70.30;;;;;;5017803;28;20455;-71
2021/05/16 12:04:16;;;;;;;3.85;1.55;;;16.30;69.00;;;;;;5004859;28;20108;-78
2021/05/16 12:06:47;;;;;;;3.60;1.60;;;16.40;68.60;;;;;;4994290;28;20543;-71
2021/05/16 12:09:24;;;;;;;4.28;1.60;;;16.80;72.10;;;;;;5006827;28;20049;-77
2021/05/16 12:11:52;;;;;;;7.63;1.98;;;17.10;69.20;;;;;;5010245;28;20042;-73
2021/05/16 12:14:23;;;;;;;6.78;2.03;;;17.50;66.80;;;;;;5000375;28;20030;-71
2021/05/16 12:16:52;;;;;;;6.00;2.30;;;17.20;65.20;;;;;;4988415;28;20066;-77
2021/05/16 12:19:26;;;;;;;7.25;2.55;;;17.30;65.80;;;;;;5009135;28;20045;-75
2021/05/16 12:21:58;;;;;;;7.60;2.17;;;17.50;67.00;;;;;;5022606;28;20546;-74
2021/05/16 12:24:26;;;;;;;5.40;2.13;;;18.00;67.60;;;;;;5037193;28;20100;-73
2021/05/16 12:26:52;;;;;;;8.43;2.35;;;18.30;65.20;;;;;;5022722;28;20478;-70
2021/05/16 12:29:20;;;;;;;6.72;2.17;;;18.10;63.30;;;;;;4998191;28;20023;-72
2021/05/16 12:31:46;;;;;;;7.70;2.40;;;18.20;63.40;;;;;;5007578;28;20053;-71
2021/05/16 12:34:14;;;;;;;8.50;2.60;;;18.30;63.10;;;;;;5009061;28;20030;-72
2021/05/16 12:36:49;;;;;;;7.80;2.40;;;18.60;60.70;;;;;;5022925;28;20053;-72
2021/05/16 12:39:53;;;;;;;8.02;2.20;;;18.70;60.70;;;;;;5022820;28;20057;-74
2021/05/16 12:42:37;;;;;;;5.32;1.95;;;18.20;59.10;;;;;;5023492;28;20041;-72
2021/05/16 12:45:26;;;;;;;8.98;2.85;;;17.90;61.20;;;;;;5024013;28;20034;-74
2021/05/16 12:48:01;;;;;;;4.95;2.00;;;17.80;61.40;;;;;;5027449;28;20095;-71